sensor_id;sensor_type;location;lat;lon;timestamp;P1;durP1;ratioP1;P2;durP2;ratioP2
61308;SDS011;47188;55.644;37.772;2022-10-26T00:00:45;21.40;;;9.35;;
61308;SDS011;47188;55.644;37.772;2022-10-26T00:03:11;12.88;;;8.68;;
61308;SDS011;47188;55.644;37.772;2022-10-26T00:05:37;14.02;;;8.77;;
61308;SDS011;47188;55.644;37.772;2022-10-26T00:08:03;12.00;;;7.93;;
61308;SDS011;47188;55.644;37.772;2022-10-26T00:10:29;14.02;;;8.20;;
61308;SDS011;47188;55.644;37.772;2022-10-26T00:12:55;11.65;;;7.10;;
61308;SDS011;47188;55.644;37.772;2022-10-26T00:15:20;15.48;;;8.07;;
61308;SDS011;47188;55.644;37.772;2022-10-26T00:17:46;14.15;;;8.00;;
61308;SDS011;47188;55.644;37.772;2022-10-26T00:20:13;14.32;;;7.65;;
61308;SDS011;47188;55.644;37.772;2022-10-26T00:22:39;12.32;;;7.25;;
61308;SDS011;47188;55.644;37.772;2022-10-26T00:25:05;12.48;;;7.50;;
61308;SDS011;47188;55.644;37.772;2022-10-26T00:27:31;12.00;;;7.28;;
61308;SDS011;47188;55.644;37.772;2022-10-26T00:29:59;13.40;;;8.00;;
61308;SDS011;47188;55.644;37.772;2022-10-26T00:32:25;11.40;;;7.45;;
61308;SDS011;47188;55.644;37.772;2022-10-26T00:34:51;12.40;;;8.93;;
61308;SDS011;47188;55.644;37.772;2022-10-26T00:37:17;12.30;;;7.18;;
61308;SDS011;47188;55.644;37.772;2022-10-26T00:39:42;10.63;;;6.72;;
61308;SDS011;47188;55.644;37.772;2022-10-26T00:42:11;15.88;;;7.60;;
61308;SDS011;47188;55.644;37.772;2022-10-26T00:50:06;11.25;;;7.40;;
61308;SDS011;47188;55.644;37.772;2022-10-26T00:52:35;14.07;;;7.38;;
61308;SDS011;47188;55.644;37.772;2022-10-26T00:55:01;9.73;;;7.78;;
61308;SDS011;47188;55.644;37.772;2022-10-26T00:57:28;11.27;;;8.35;;
61308;SDS011;47188;55.644;37.772;2022-10-26T00:59:55;14.65;;;8.20;;
61308;SDS011;47188;55.644;37.772;2022-10-26T01:02:21;13.18;;;7.97;;
61308;SDS011;47188;55.644;37.772;2022-10-26T01:04:47;12.85;;;8.90;;
61308;SDS011;47188;55.644;37.772;2022-10-26T01:07:14;12.20;;;8.50;;
61308;SDS011;47188;55.644;37.772;2022-10-26T01:09:40;14.48;;;8.40;;
61308;SDS011;47188;55.644;37.772;2022-10-26T01:12:06;13.18;;;8.57;;
61308;SDS011;47188;55.644;37.772;2022-10-26T01:14:32;14.95;;;8.55;;
61308;SDS011;47188;55.644;37.772;2022-10-26T01:17:42;17.23;;;9.45;;
61308;SDS011;47188;55.644;37.772;2022-10-26T01:22:50;14.27;;;8.52;;
61308;SDS011;47188;55.644;37.772;2022-10-26T01:25:37;14.02;;;8.35;;
61308;SDS011;47188;55.644;37.772;2022-10-26T01:28:16;14.23;;;8.73;;
61308;SDS011;47188;55.644;37.772;2022-10-26T01:30:50;11.05;;;7.60;;
61308;SDS011;47188;55.644;37.772;2022-10-26T01:33:21;13.90;;;8.60;;
61308;SDS011;47188;55.644;37.772;2022-10-26T01:36:10;12.57;;;8.23;;
61308;SDS011;47188;55.644;37.772;2022-10-26T01:41:35;12.00;;;7.40;;
61308;SDS011;47188;55.644;37.772;2022-10-26T01:44:05;10.63;;;6.75;;
61308;SDS011;47188;55.644;37.772;2022-10-26T01:46:35;11.93;;;7.32;;
61308;SDS011;47188;55.644;37.772;2022-10-26T01:49:07;11.00;;;7.30;;
61308;SDS011;47188;55.644;37.772;2022-10-26T01:51:35;11.98;;;7.28;;
61308;SDS011;47188;55.644;37.772;2022-10-26T01:54:02;12.57;;;7.15;;
61308;SDS011;47188;55.644;37.772;2022-10-26T01:56:29;10.57;;;7.30;;
61308;SDS011;47188;55.644;37.772;2022-10-26T01:59:10;12.00;;;7.57;;
61308;SDS011;47188;55.644;37.772;2022-10-26T02:01:53;10.77;;;7.18;;
61308;SDS011;47188;55.644;37.772;2022-10-26T02:20:11;9.75;;;7.30;;
61308;SDS011;47188;55.644;37.772;2022-10-26T02:22:44;8.77;;;6.40;;
61308;SDS011;47188;55.644;37.772;2022-10-26T02:25:15;11.50;;;7.00;;
61308;SDS011;47188;55.644;37.772;2022-10-26T02:27:44;10.60;;;6.65;;
61308;SDS011;47188;55.644;37.772;2022-10-26T02:30:13;15.68;;;7.38;;
61308;SDS011;47188;55.644;37.772;2022-10-26T02:32:40;10.63;;;6.70;;
61308;SDS011;47188;55.644;37.772;2022-10-26T02:35:09;10.63;;;6.95;;
61308;SDS011;47188;55.644;37.772;2022-10-26T02:37:36;13.25;;;7.22;;
61308;SDS011;47188;55.644;37.772;2022-10-26T02:40:03;10.85;;;7.15;;
61308;SDS011;47188;55.644;37.772;2022-10-26T02:42:32;10.45;;;7.35;;
61308;SDS011;47188;55.644;37.772;2022-10-26T02:45:03;10.00;;;6.60;;
61308;SDS011;47188;55.644;37.772;2022-10-26T02:47:32;10.70;;;6.40;;
61308;SDS011;47188;55.644;37.772;2022-10-26T02:49:58;12.88;;;7.25;;
61308;SDS011;47188;55.644;37.772;2022-10-26T02:52:29;11.80;;;6.80;;
61308;SDS011;47188;55.644;37.772;2022-10-26T02:54:59;11.88;;;7.13;;
61308;SDS011;47188;55.644;37.772;2022-10-26T02:57:33;9.13;;;6.55;;
61308;SDS011;47188;55.644;37.772;2022-10-26T03:00:06;10.00;;;7.47;;
61308;SDS011;47188;55.644;37.772;2022-10-26T03:02:32;11.60;;;8.68;;
61308;SDS011;47188;55.644;37.772;2022-10-26T03:05:05;11.38;;;7.70;;
61308;SDS011;47188;55.644;37.772;2022-10-26T03:07:33;9.63;;;7.30;;
61308;SDS011;47188;55.644;37.772;2022-10-26T03:09:59;9.23;;;6.80;;
61308;SDS011;47188;55.644;37.772;2022-10-26T03:12:24;12.13;;;7.55;;
61308;SDS011;47188;55.644;37.772;2022-10-26T03:14:50;10.75;;;6.97;;
61308;SDS011;47188;55.644;37.772;2022-10-26T03:17:16;14.57;;;7.60;;
61308;SDS011;47188;55.644;37.772;2022-10-26T03:19:42;11.68;;;7.32;;
61308;SDS011;47188;55.644;37.772;2022-10-26T03:22:07;12.82;;;7.72;;
61308;SDS011;47188;55.644;37.772;2022-10-26T03:24:33;11.95;;;6.53;;
61308;SDS011;47188;55.644;37.772;2022-10-26T03:26:59;12.25;;;6.70;;
61308;SDS011;47188;55.644;37.772;2022-10-26T03:29:24;12.50;;;8.02;;
61308;SDS011;47188;55.644;37.772;2022-10-26T03:31:50;13.48;;;7.20;;
61308;SDS011;47188;55.644;37.772;2022-10-26T03:34:18;13.57;;;8.23;;
61308;SDS011;47188;55.644;37.772;2022-10-26T03:36:45;12.50;;;7.38;;
61308;SDS011;47188;55.644;37.772;2022-10-26T03:39:11;14.18;;;7.55;;
61308;SDS011;47188;55.644;37.772;2022-10-26T03:41:37;15.05;;;7.85;;
61308;SDS011;47188;55.644;37.772;2022-10-26T03:44:03;11.00;;;7.82;;
61308;SDS011;47188;55.644;37.772;2022-10-26T03:46:29;14.40;;;7.32;;
61308;SDS011;47188;55.644;37.772;2022-10-26T03:48:54;10.80;;;8.10;;
61308;SDS011;47188;55.644;37.772;2022-10-26T03:51:20;13.25;;;8.10;;
61308;SDS011;47188;55.644;37.772;2022-10-26T03:53:46;14.13;;;7.55;;
61308;SDS011;47188;55.644;37.772;2022-10-26T03:56:12;18.15;;;7.97;;
61308;SDS011;47188;55.644;37.772;2022-10-26T03:58:37;20.52;;;8.70;;
61308;SDS011;47188;55.644;37.772;2022-10-26T04:01:03;14.20;;;7.93;;
61308;SDS011;47188;55.644;37.772;2022-10-26T04:03:29;15.32;;;7.95;;
61308;SDS011;47188;55.644;37.772;2022-10-26T04:05:55;15.15;;;8.18;;
61308;SDS011;47188;55.644;37.772;2022-10-26T04:08:22;13.57;;;8.27;;
61308;SDS011;47188;55.644;37.772;2022-10-26T04:10:48;16.77;;;8.45;;
61308;SDS011;47188;55.644;37.772;2022-10-26T04:13:13;13.93;;;8.60;;
61308;SDS011;47188;55.644;37.772;2022-10-26T04:15:39;17.80;;;8.18;;
61308;SDS011;47188;55.644;37.772;2022-10-26T04:18:05;14.15;;;8.63;;
61308;SDS011;47188;55.644;37.772;2022-10-26T04:20:32;13.20;;;8.13;;
61308;SDS011;47188;55.644;37.772;2022-10-26T04:22:59;14.45;;;9.02;;
61308;SDS011;47188;55.644;37.772;2022-10-26T04:25:26;15.15;;;7.88;;
61308;SDS011;47188;55.644;37.772;2022-10-26T04:27:52;14.07;;;7.30;;
61308;SDS011;47188;55.644;37.772;2022-10-26T04:30:18;14.27;;;8.10;;
61308;SDS011;47188;55.644;37.772;2022-10-26T04:32:45;13.38;;;8.13;;
61308;SDS011;47188;55.644;37.772;2022-10-26T04:35:10;13.60;;;7.50;;
61308;SDS011;47188;55.644;37.772;2022-10-26T04:37:36;11.75;;;7.90;;
61308;SDS011;47188;55.644;37.772;2022-10-26T04:40:02;11.77;;;8.60;;
61308;SDS011;47188;55.644;37.772;2022-10-26T04:42:29;10.55;;;7.60;;
61308;SDS011;47188;55.644;37.772;2022-10-26T04:44:58;21.50;;;12.10;;
61308;SDS011;47188;55.644;37.772;2022-10-26T04:47:24;11.23;;;8.38;;
61308;SDS011;47188;55.644;37.772;2022-10-26T04:49:50;11.82;;;7.57;;
61308;SDS011;47188;55.644;37.772;2022-10-26T04:52:16;14.55;;;8.25;;
61308;SDS011;47188;55.644;37.772;2022-10-26T04:54:42;11.18;;;8.48;;
61308;SDS011;47188;55.644;37.772;2022-10-26T04:57:07;10.10;;;7.47;;
61308;SDS011;47188;55.644;37.772;2022-10-26T04:59:33;12.68;;;8.30;;
61308;SDS011;47188;55.644;37.772;2022-10-26T05:01:59;10.73;;;7.22;;
61308;SDS011;47188;55.644;37.772;2022-10-26T05:04:25;11.13;;;7.15;;
61308;SDS011;47188;55.644;37.772;2022-10-26T05:06:51;9.85;;;7.97;;
61308;SDS011;47188;55.644;37.772;2022-10-26T05:09:18;13.38;;;8.63;;
61308;SDS011;47188;55.644;37.772;2022-10-26T05:11:44;12.52;;;7.90;;
61308;SDS011;47188;55.644;37.772;2022-10-26T05:14:09;12.23;;;8.30;;
61308;SDS011;47188;55.644;37.772;2022-10-26T05:16:37;12.77;;;8.38;;
61308;SDS011;47188;55.644;37.772;2022-10-26T05:19:03;12.65;;;8.23;;
61308;SDS011;47188;55.644;37.772;2022-10-26T05:21:29;14.63;;;8.50;;
61308;SDS011;47188;55.644;37.772;2022-10-26T05:23:55;11.30;;;8.60;;
61308;SDS011;47188;55.644;37.772;2022-10-26T05:26:21;9.75;;;7.63;;
61308;SDS011;47188;55.644;37.772;2022-10-26T05:28:48;16.08;;;7.63;;
61308;SDS011;47188;55.644;37.772;2022-10-26T05:31:14;12.43;;;8.02;;
61308;SDS011;47188;55.644;37.772;2022-10-26T05:33:40;15.98;;;7.88;;
61308;SDS011;47188;55.644;37.772;2022-10-26T05:36:05;14.48;;;9.10;;
61308;SDS011;47188;55.644;37.772;2022-10-26T05:38:32;11.57;;;8.32;;
61308;SDS011;47188;55.644;37.772;2022-10-26T05:40:57;14.63;;;8.23;;
61308;SDS011;47188;55.644;37.772;2022-10-26T05:43:23;11.15;;;7.40;;
61308;SDS011;47188;55.644;37.772;2022-10-26T05:45:51;14.75;;;8.57;;
61308;SDS011;47188;55.644;37.772;2022-10-26T05:48:18;16.73;;;8.90;;
61308;SDS011;47188;55.644;37.772;2022-10-26T05:50:45;15.30;;;8.90;;
61308;SDS011;47188;55.644;37.772;2022-10-26T05:53:11;15.95;;;9.00;;
61308;SDS011;47188;55.644;37.772;2022-10-26T05:55:37;14.05;;;8.95;;
61308;SDS011;47188;55.644;37.772;2022-10-26T05:58:03;13.48;;;8.02;;
61308;SDS011;47188;55.644;37.772;2022-10-26T06:00:29;15.07;;;8.52;;
61308;SDS011;47188;55.644;37.772;2022-10-26T06:05:27;16.38;;;8.65;;
61308;SDS011;47188;55.644;37.772;2022-10-26T06:07:54;14.30;;;8.10;;
61308;SDS011;47188;55.644;37.772;2022-10-26T06:10:20;12.93;;;8.65;;
61308;SDS011;47188;55.644;37.772;2022-10-26T06:12:46;19.25;;;9.18;;
61308;SDS011;47188;55.644;37.772;2022-10-26T06:15:13;12.85;;;9.02;;
61308;SDS011;47188;55.644;37.772;2022-10-26T06:28:52;16.02;;;8.35;;
61308;SDS011;47188;55.644;37.772;2022-10-26T06:31:49;14.52;;;8.77;;
61308;SDS011;47188;55.644;37.772;2022-10-26T06:34:17;11.27;;;8.25;;
61308;SDS011;47188;55.644;37.772;2022-10-26T06:36:47;9.95;;;7.88;;
61308;SDS011;47188;55.644;37.772;2022-10-26T06:39:14;12.68;;;8.20;;
61308;SDS011;47188;55.644;37.772;2022-10-26T06:41:41;12.40;;;8.88;;
61308;SDS011;47188;55.644;37.772;2022-10-26T06:44:09;13.60;;;8.18;;
61308;SDS011;47188;55.644;37.772;2022-10-26T06:46:42;11.98;;;8.63;;
61308;SDS011;47188;55.644;37.772;2022-10-26T06:49:30;10.43;;;7.78;;
61308;SDS011;47188;55.644;37.772;2022-10-26T06:55:12;13.10;;;8.23;;
61308;SDS011;47188;55.644;37.772;2022-10-26T06:57:39;13.45;;;8.30;;
61308;SDS011;47188;55.644;37.772;2022-10-26T07:00:16;11.52;;;7.63;;
61308;SDS011;47188;55.644;37.772;2022-10-26T07:02:45;12.98;;;8.02;;
61308;SDS011;47188;55.644;37.772;2022-10-26T07:05:11;15.07;;;7.78;;
61308;SDS011;47188;55.644;37.772;2022-10-26T07:07:44;10.25;;;7.72;;
61308;SDS011;47188;55.644;37.772;2022-10-26T07:10:11;13.82;;;7.35;;
61308;SDS011;47188;55.644;37.772;2022-10-26T07:12:38;9.50;;;7.57;;
61308;SDS011;47188;55.644;37.772;2022-10-26T07:15:05;9.70;;;6.80;;
61308;SDS011;47188;55.644;37.772;2022-10-26T07:17:45;11.60;;;7.32;;
61308;SDS011;47188;55.644;37.772;2022-10-26T07:20:12;12.73;;;7.50;;
61308;SDS011;47188;55.644;37.772;2022-10-26T07:22:42;10.52;;;7.53;;
61308;SDS011;47188;55.644;37.772;2022-10-26T07:25:08;10.20;;;7.00;;
61308;SDS011;47188;55.644;37.772;2022-10-26T07:27:35;10.52;;;6.75;;
61308;SDS011;47188;55.644;37.772;2022-10-26T07:30:01;13.85;;;7.50;;
61308;SDS011;47188;55.644;37.772;2022-10-26T07:32:29;11.07;;;7.57;;
61308;SDS011;47188;55.644;37.772;2022-10-26T07:34:55;13.05;;;6.95;;
61308;SDS011;47188;55.644;37.772;2022-10-26T07:37:20;11.00;;;7.68;;
61308;SDS011;47188;55.644;37.772;2022-10-26T07:39:46;10.55;;;7.55;;
61308;SDS011;47188;55.644;37.772;2022-10-26T07:42:13;13.52;;;7.93;;
61308;SDS011;47188;55.644;37.772;2022-10-26T07:44:39;11.80;;;7.65;;
61308;SDS011;47188;55.644;37.772;2022-10-26T07:47:05;8.85;;;7.35;;
61308;SDS011;47188;55.644;37.772;2022-10-26T07:49:31;12.18;;;7.68;;
61308;SDS011;47188;55.644;37.772;2022-10-26T07:51:56;10.93;;;6.78;;
61308;SDS011;47188;55.644;37.772;2022-10-26T07:54:22;14.15;;;7.75;;
61308;SDS011;47188;55.644;37.772;2022-10-26T07:56:48;12.45;;;7.72;;
61308;SDS011;47188;55.644;37.772;2022-10-26T07:59:14;8.68;;;6.93;;
61308;SDS011;47188;55.644;37.772;2022-10-26T08:01:41;29.13;;;8.30;;
61308;SDS011;47188;55.644;37.772;2022-10-26T08:04:07;10.38;;;7.45;;
61308;SDS011;47188;55.644;37.772;2022-10-26T08:06:33;12.23;;;7.50;;
61308;SDS011;47188;55.644;37.772;2022-10-26T08:08:58;10.30;;;7.60;;
61308;SDS011;47188;55.644;37.772;2022-10-26T08:11:24;12.98;;;6.80;;
61308;SDS011;47188;55.644;37.772;2022-10-26T08:13:51;13.73;;;6.90;;
61308;SDS011;47188;55.644;37.772;2022-10-26T08:16:17;12.25;;;7.25;;
61308;SDS011;47188;55.644;37.772;2022-10-26T08:18:43;10.18;;;6.10;;
61308;SDS011;47188;55.644;37.772;2022-10-26T08:21:09;9.35;;;6.18;;
61308;SDS011;47188;55.644;37.772;2022-10-26T08:23:36;15.55;;;7.30;;
61308;SDS011;47188;55.644;37.772;2022-10-26T08:26:02;11.30;;;6.57;;
61308;SDS011;47188;55.644;37.772;2022-10-26T08:28:28;9.88;;;6.10;;
61308;SDS011;47188;55.644;37.772;2022-10-26T08:30:55;7.68;;;5.68;;
61308;SDS011;47188;55.644;37.772;2022-10-26T08:33:21;10.63;;;5.95;;
61308;SDS011;47188;55.644;37.772;2022-10-26T08:35:48;9.30;;;5.80;;
61308;SDS011;47188;55.644;37.772;2022-10-26T08:38:14;9.80;;;6.25;;
61308;SDS011;47188;55.644;37.772;2022-10-26T08:40:40;12.07;;;6.75;;
61308;SDS011;47188;55.644;37.772;2022-10-26T08:45:49;7.13;;;5.18;;
61308;SDS011;47188;55.644;37.772;2022-10-26T08:48:19;10.10;;;6.03;;
61308;SDS011;47188;55.644;37.772;2022-10-26T08:50:48;12.23;;;7.32;;
61308;SDS011;47188;55.644;37.772;2022-10-26T08:53:25;10.82;;;6.43;;
61308;SDS011;47188;55.644;37.772;2022-10-26T08:56:04;14.70;;;7.30;;
61308;SDS011;47188;55.644;37.772;2022-10-26T08:58:36;10.70;;;5.90;;
61308;SDS011;47188;55.644;37.772;2022-10-26T09:01:04;8.85;;;6.00;;
61308;SDS011;47188;55.644;37.772;2022-10-26T09:03:30;11.07;;;6.70;;
61308;SDS011;47188;55.644;37.772;2022-10-26T09:06:06;15.88;;;5.93;;
61308;SDS011;47188;55.644;37.772;2022-10-26T09:14:44;11.50;;;6.07;;
61308;SDS011;47188;55.644;37.772;2022-10-26T09:22:23;9.15;;;5.63;;
61308;SDS011;47188;55.644;37.772;2022-10-26T09:24:56;13.30;;;5.43;;
61308;SDS011;47188;55.644;37.772;2022-10-26T09:27:26;7.60;;;4.80;;
61308;SDS011;47188;55.644;37.772;2022-10-26T09:29:58;9.48;;;5.18;;
61308;SDS011;47188;55.644;37.772;2022-10-26T09:32:34;5.95;;;4.38;;
61308;SDS011;47188;55.644;37.772;2022-10-26T09:35:05;6.97;;;4.00;;
61308;SDS011;47188;55.644;37.772;2022-10-26T09:37:55;9.00;;;4.18;;
61308;SDS011;47188;55.644;37.772;2022-10-26T09:40:29;7.40;;;4.43;;
61308;SDS011;47188;55.644;37.772;2022-10-26T09:43:22;12.65;;;5.07;;
61308;SDS011;47188;55.644;37.772;2022-10-26T09:45:50;9.05;;;5.03;;
61308;SDS011;47188;55.644;37.772;2022-10-26T09:48:32;9.18;;;5.22;;
61308;SDS011;47188;55.644;37.772;2022-10-26T09:51:01;7.70;;;4.50;;
61308;SDS011;47188;55.644;37.772;2022-10-26T09:53:27;11.40;;;4.78;;
61308;SDS011;47188;55.644;37.772;2022-10-26T09:56:14;5.85;;;4.18;;
61308;SDS011;47188;55.644;37.772;2022-10-26T09:58:43;8.57;;;4.03;;
61308;SDS011;47188;55.644;37.772;2022-10-26T10:01:30;6.70;;;4.20;;
61308;SDS011;47188;55.644;37.772;2022-10-26T10:06:35;9.25;;;4.85;;
61308;SDS011;47188;55.644;37.772;2022-10-26T10:09:05;6.82;;;4.78;;
61308;SDS011;47188;55.644;37.772;2022-10-26T10:11:45;8.25;;;4.30;;
61308;SDS011;47188;55.644;37.772;2022-10-26T10:14:23;9.43;;;4.90;;
61308;SDS011;47188;55.644;37.772;2022-10-26T10:17:03;6.22;;;4.53;;
61308;SDS011;47188;55.644;37.772;2022-10-26T10:19:35;9.73;;;5.53;;
61308;SDS011;47188;55.644;37.772;2022-10-26T10:24:53;6.68;;;4.25;;
61308;SDS011;47188;55.644;37.772;2022-10-26T10:27:21;6.50;;;4.50;;
61308;SDS011;47188;55.644;37.772;2022-10-26T10:29:49;8.40;;;4.47;;
61308;SDS011;47188;55.644;37.772;2022-10-26T10:32:19;7.25;;;4.50;;
61308;SDS011;47188;55.644;37.772;2022-10-26T10:34:56;8.65;;;4.20;;
61308;SDS011;47188;55.644;37.772;2022-10-26T10:39:59;9.82;;;4.80;;
61308;SDS011;47188;55.644;37.772;2022-10-26T10:42:29;8.45;;;4.20;;
61308;SDS011;47188;55.644;37.772;2022-10-26T10:44:57;7.57;;;4.30;;
61308;SDS011;47188;55.644;37.772;2022-10-26T10:47:27;9.18;;;5.22;;
61308;SDS011;47188;55.644;37.772;2022-10-26T10:49:59;7.45;;;4.28;;
61308;SDS011;47188;55.644;37.772;2022-10-26T10:52:46;6.70;;;4.43;;
61308;SDS011;47188;55.644;37.772;2022-10-26T11:00:28;6.07;;;4.22;;
61308;SDS011;47188;55.644;37.772;2022-10-26T11:08:16;7.35;;;5.00;;
61308;SDS011;47188;55.644;37.772;2022-10-26T11:10:53;6.85;;;4.10;;
61308;SDS011;47188;55.644;37.772;2022-10-26T11:13:25;7.93;;;4.57;;
61308;SDS011;47188;55.644;37.772;2022-10-26T11:16:04;8.35;;;4.55;;
61308;SDS011;47188;55.644;37.772;2022-10-26T11:18:40;6.80;;;4.22;;
61308;SDS011;47188;55.644;37.772;2022-10-26T11:21:21;10.85;;;4.22;;
61308;SDS011;47188;55.644;37.772;2022-10-26T11:23:52;9.48;;;4.53;;
61308;SDS011;47188;55.644;37.772;2022-10-26T11:29:25;6.30;;;4.38;;
61308;SDS011;47188;55.644;37.772;2022-10-26T11:32:20;6.15;;;4.18;;
61308;SDS011;47188;55.644;37.772;2022-10-26T11:45:56;7.30;;;4.40;;
61308;SDS011;47188;55.644;37.772;2022-10-26T11:48:42;10.35;;;4.25;;
61308;SDS011;47188;55.644;37.772;2022-10-26T11:54:09;6.00;;;4.10;;
61308;SDS011;47188;55.644;37.772;2022-10-26T11:56:43;8.07;;;4.47;;
61308;SDS011;47188;55.644;37.772;2022-10-26T11:59:19;6.95;;;3.22;;
61308;SDS011;47188;55.644;37.772;2022-10-26T12:01:57;6.97;;;3.92;;
61308;SDS011;47188;55.644;37.772;2022-10-26T12:04:27;7.60;;;3.88;;
61308;SDS011;47188;55.644;37.772;2022-10-26T12:06:55;9.07;;;4.72;;
61308;SDS011;47188;55.644;37.772;2022-10-26T12:09:29;7.95;;;4.35;;
61308;SDS011;47188;55.644;37.772;2022-10-26T12:11:58;4.38;;;3.00;;
61308;SDS011;47188;55.644;37.772;2022-10-26T12:14:44;5.60;;;3.10;;
61308;SDS011;47188;55.644;37.772;2022-10-26T12:17:36;5.75;;;3.72;;
61308;SDS011;47188;55.644;37.772;2022-10-26T12:22:59;5.88;;;3.08;;
61308;SDS011;47188;55.644;37.772;2022-10-26T12:25:25;5.40;;;3.20;;
61308;SDS011;47188;55.644;37.772;2022-10-26T12:27:52;5.50;;;3.63;;
61308;SDS011;47188;55.644;37.772;2022-10-26T12:37:56;7.82;;;3.55;;
61308;SDS011;47188;55.644;37.772;2022-10-26T12:42:55;6.90;;;3.53;;
61308;SDS011;47188;55.644;37.772;2022-10-26T12:45:21;8.20;;;3.80;;
61308;SDS011;47188;55.644;37.772;2022-10-26T12:52:40;10.10;;;4.10;;
61308;SDS011;47188;55.644;37.772;2022-10-26T13:03:33;7.53;;;3.95;;
61308;SDS011;47188;55.644;37.772;2022-10-26T13:09:16;7.10;;;3.28;;
61308;SDS011;47188;55.644;37.772;2022-10-26T13:11:46;7.28;;;3.42;;
61308;SDS011;47188;55.644;37.772;2022-10-26T13:14:26;6.28;;;3.38;;
61308;SDS011;47188;55.644;37.772;2022-10-26T13:16:55;5.32;;;3.30;;
61308;SDS011;47188;55.644;37.772;2022-10-26T13:19:31;6.07;;;3.80;;
61308;SDS011;47188;55.644;37.772;2022-10-26T13:22:02;6.85;;;4.80;;
61308;SDS011;47188;55.644;37.772;2022-10-26T13:24:29;10.43;;;5.38;;
61308;SDS011;47188;55.644;37.772;2022-10-26T13:29:32;7.00;;;4.20;;
61308;SDS011;47188;55.644;37.772;2022-10-26T13:32:23;9.13;;;4.80;;
61308;SDS011;47188;55.644;37.772;2022-10-26T13:34:50;9.90;;;5.22;;
61308;SDS011;47188;55.644;37.772;2022-10-26T13:37:23;12.95;;;4.88;;
61308;SDS011;47188;55.644;37.772;2022-10-26T13:39:51;10.52;;;4.35;;
61308;SDS011;47188;55.644;37.772;2022-10-26T13:42:24;6.97;;;4.38;;
61308;SDS011;47188;55.644;37.772;2022-10-26T13:44:52;11.50;;;4.82;;
61308;SDS011;47188;55.644;37.772;2022-10-26T13:50:06;8.80;;;5.88;;
61308;SDS011;47188;55.644;37.772;2022-10-26T13:52:40;10.20;;;5.43;;
61308;SDS011;47188;55.644;37.772;2022-10-26T13:55:08;5.63;;;4.03;;
61308;SDS011;47188;55.644;37.772;2022-10-26T14:00:34;10.07;;;5.53;;
61308;SDS011;47188;55.644;37.772;2022-10-26T14:03:10;11.50;;;5.90;;
61308;SDS011;47188;55.644;37.772;2022-10-26T14:05:40;13.13;;;6.30;;
61308;SDS011;47188;55.644;37.772;2022-10-26T14:08:10;15.20;;;7.32;;
61308;SDS011;47188;55.644;37.772;2022-10-26T14:10:42;10.32;;;5.85;;
61308;SDS011;47188;55.644;37.772;2022-10-26T14:13:14;16.50;;;6.57;;
61308;SDS011;47188;55.644;37.772;2022-10-26T14:15:42;9.93;;;6.80;;
61308;SDS011;47188;55.644;37.772;2022-10-26T14:18:20;12.60;;;6.35;;
61308;SDS011;47188;55.644;37.772;2022-10-26T14:20:54;13.98;;;6.10;;
61308;SDS011;47188;55.644;37.772;2022-10-26T14:23:26;12.25;;;6.35;;
61308;SDS011;47188;55.644;37.772;2022-10-26T14:25:59;12.20;;;7.32;;
61308;SDS011;47188;55.644;37.772;2022-10-26T14:28:29;17.75;;;7.25;;
61308;SDS011;47188;55.644;37.772;2022-10-26T14:31:12;11.48;;;6.32;;
61308;SDS011;47188;55.644;37.772;2022-10-26T14:33:43;14.05;;;7.20;;
61308;SDS011;47188;55.644;37.772;2022-10-26T14:36:09;11.82;;;7.53;;
61308;SDS011;47188;55.644;37.772;2022-10-26T14:38:38;11.82;;;6.50;;
61308;SDS011;47188;55.644;37.772;2022-10-26T14:41:08;13.85;;;7.50;;
61308;SDS011;47188;55.644;37.772;2022-10-26T14:43:34;13.40;;;7.35;;
61308;SDS011;47188;55.644;37.772;2022-10-26T14:45:59;14.50;;;7.47;;
61308;SDS011;47188;55.644;37.772;2022-10-26T14:48:29;14.65;;;7.28;;
61308;SDS011;47188;55.644;37.772;2022-10-26T14:51:07;21.33;;;8.80;;
61308;SDS011;47188;55.644;37.772;2022-10-26T14:53:38;10.93;;;6.00;;
61308;SDS011;47188;55.644;37.772;2022-10-26T14:56:15;17.85;;;6.68;;
61308;SDS011;47188;55.644;37.772;2022-10-26T14:58:48;10.55;;;6.47;;
61308;SDS011;47188;55.644;37.772;2022-10-26T15:03:43;13.13;;;6.20;;
61308;SDS011;47188;55.644;37.772;2022-10-26T15:08:57;18.67;;;6.63;;
61308;SDS011;47188;55.644;37.772;2022-10-26T15:11:24;12.02;;;7.07;;
61308;SDS011;47188;55.644;37.772;2022-10-26T15:13:50;14.27;;;7.43;;
61308;SDS011;47188;55.644;37.772;2022-10-26T15:16:18;18.60;;;7.97;;
61308;SDS011;47188;55.644;37.772;2022-10-26T15:21:34;16.70;;;7.68;;
61308;SDS011;47188;55.644;37.772;2022-10-26T15:24:11;18.08;;;7.72;;
61308;SDS011;47188;55.644;37.772;2022-10-26T15:26:57;9.75;;;6.15;;
61308;SDS011;47188;55.644;37.772;2022-10-26T15:29:37;9.40;;;5.80;;
61308;SDS011;47188;55.644;37.772;2022-10-26T15:37:46;9.50;;;6.10;;
61308;SDS011;47188;55.644;37.772;2022-10-26T15:40:14;12.30;;;6.57;;
61308;SDS011;47188;55.644;37.772;2022-10-26T15:42:40;9.23;;;6.15;;
61308;SDS011;47188;55.644;37.772;2022-10-26T15:47:38;13.32;;;6.53;;
61308;SDS011;47188;55.644;37.772;2022-10-26T15:50:04;8.57;;;5.97;;
61308;SDS011;47188;55.644;37.772;2022-10-26T15:52:30;12.90;;;6.25;;
61308;SDS011;47188;55.644;37.772;2022-10-26T15:54:56;14.18;;;6.78;;
61308;SDS011;47188;55.644;37.772;2022-10-26T15:57:22;9.85;;;6.70;;
61308;SDS011;47188;55.644;37.772;2022-10-26T15:59:50;9.25;;;6.40;;
61308;SDS011;47188;55.644;37.772;2022-10-26T16:02:15;9.38;;;6.05;;
61308;SDS011;47188;55.644;37.772;2022-10-26T16:04:42;9.27;;;6.40;;
61308;SDS011;47188;55.644;37.772;2022-10-26T16:07:10;12.70;;;6.50;;
61308;SDS011;47188;55.644;37.772;2022-10-26T16:09:37;12.10;;;6.88;;
61308;SDS011;47188;55.644;37.772;2022-10-26T16:12:03;9.05;;;5.72;;
61308;SDS011;47188;55.644;37.772;2022-10-26T16:14:29;15.70;;;6.70;;
61308;SDS011;47188;55.644;37.772;2022-10-26T16:16:55;14.50;;;6.88;;
61308;SDS011;47188;55.644;37.772;2022-10-26T16:19:22;14.20;;;7.05;;
61308;SDS011;47188;55.644;37.772;2022-10-26T16:21:50;14.07;;;7.00;;
61308;SDS011;47188;55.644;37.772;2022-10-26T16:24:16;13.52;;;7.30;;
61308;SDS011;47188;55.644;37.772;2022-10-26T16:26:42;10.98;;;7.22;;
61308;SDS011;47188;55.644;37.772;2022-10-26T16:29:08;11.43;;;6.40;;
61308;SDS011;47188;55.644;37.772;2022-10-26T16:31:33;14.23;;;7.38;;
61308;SDS011;47188;55.644;37.772;2022-10-26T16:33:59;10.63;;;6.97;;
61308;SDS011;47188;55.644;37.772;2022-10-26T16:36:26;16.20;;;7.30;;
61308;SDS011;47188;55.644;37.772;2022-10-26T16:38:52;10.77;;;7.45;;
61308;SDS011;47188;55.644;37.772;2022-10-26T16:41:17;15.48;;;6.97;;
61308;SDS011;47188;55.644;37.772;2022-10-26T16:43:43;11.60;;;7.20;;
61308;SDS011;47188;55.644;37.772;2022-10-26T16:46:20;15.05;;;7.63;;
61308;SDS011;47188;55.644;37.772;2022-10-26T16:48:46;9.68;;;7.13;;
61308;SDS011;47188;55.644;37.772;2022-10-26T16:51:13;12.65;;;7.30;;
61308;SDS011;47188;55.644;37.772;2022-10-26T16:53:45;13.02;;;7.60;;
61308;SDS011;47188;55.644;37.772;2022-10-26T16:56:15;12.77;;;7.55;;
61308;SDS011;47188;55.644;37.772;2022-10-26T16:58:43;10.93;;;7.45;;
61308;SDS011;47188;55.644;37.772;2022-10-26T17:01:09;12.25;;;6.95;;
61308;SDS011;47188;55.644;37.772;2022-10-26T17:03:37;10.32;;;6.90;;
61308;SDS011;47188;55.644;37.772;2022-10-26T17:06:04;10.48;;;6.70;;